Time;durP1;ratioP1;P1;durP2;ratioP2;P2;SDS_P1;SDS_P2;PMS_P1;PMS_P2;Temp;Humidity;BMP_temperature;BMP_pressure;BME280_temperature;BME280_humidity;BME280_pressure;Samples;Min_cycle;Max_cycle;Signal;HPM_P1;HPM_P2
2022/08/08 00:00:10;;;;;;;0.10;0.10;;;;;;;19.19;57.54;102639.09;5041889;28;20037;-74
2022/08/08 00:05:40;;;;;;;0.10;0.10;;;;;;;19.13;57.57;102644.63;5077772;28;20404;-75
2022/08/08 00:11:14;;;;;;;0.05;0.05;;;;;;;19.09;57.22;102643.88;5112115;27;20769;-74
2022/08/08 00:14:02;;;;;;;0.10;0.10;;;;;;;19.10;57.40;102636.69;5089065;28;20081;-74
2022/08/08 00:22:09;;;;;;;0.10;0.10;;;;;;;19.11;56.72;102630.38;5109006;27;20355;-74
2022/08/08 00:24:43;;;;;;;0.08;0.08;;;;;;;19.08;56.50;102626.84;5107782;28;20108;-74
2022/08/08 00:27:13;;;;;;;0.10;0.10;;;;;;;19.05;57.43;102629.63;5091205;28;20036;-73
2022/08/08 00:29:48;;;;;;;0.43;0.43;;;;;;;19.05;57.38;102618.00;5102030;28;20032;-74
2022/08/08 00:32:39;;;;;;;0.10;0.10;;;;;;;19.02;57.59;102621.66;5106291;28;20382;-74
2022/08/08 00:38:01;;;;;;;0.10;0.10;;;;;;;18.98;57.38;102616.41;5072717;28;20133;-75
2022/08/08 00:43:41;;;;;;;0.10;0.10;;;;;;;18.99;58.07;102615.47;5109427;27;20943;-74
2022/08/08 00:49:54;;;;;;;0.10;0.10;;;;;;;18.96;57.92;102616.44;5115797;27;20395;-74
2022/08/08 00:55:23;;;;;;;0.35;0.17;;;;;;;18.95;57.78;102620.03;5092701;27;20393;-74
2022/08/08 01:00:29;;;;;;;0.10;0.10;;;;;;;18.87;58.34;102620.22;5113974;27;20399;-74
2022/08/08 01:03:23;;;;;;;0.00;0.00;;;;;;;18.93;57.76;102616.53;5113179;28;20038;-74
2022/08/08 01:08:46;;;;;;;0.08;0.08;;;;;;;18.89;58.30;102620.19;5117075;27;20158;-74
2022/08/08 01:14:30;;;;;;;0.00;0.00;;;;;;;18.86;57.82;102613.09;5108469;27;20380;-74
2022/08/08 01:26:29;;;;;;;0.10;0.10;;;;;;;18.74;58.48;102611.63;5065779;27;20519;-74
2022/08/08 01:40:36;;;;;;;0.10;0.10;;;;;;;18.58;58.87;102610.25;5110144;27;20399;-74
2022/08/08 01:43:26;;;;;;;0.10;0.10;;;;;;;18.58;58.97;102607.59;5093091;28;20024;-74
2022/08/08 01:51:57;;;;;;;0.10;0.10;;;;;;;18.64;59.05;102610.09;5073546;28;20400;-74
2022/08/08 01:54:55;;;;;;;0.88;0.85;;;;;;;18.65;59.12;102610.97;5062529;28;20114;-74
2022/08/08 02:05:56;;;;;;;0.32;0.32;;;;;;;18.56;59.12;102609.41;5103096;27;20393;-74
2022/08/08 02:08:37;;;;;;;0.10;0.10;;;;;;;18.53;58.88;102612.16;5085989;28;20085;-74
2022/08/08 02:11:30;;;;;;;0.10;0.10;;;;;;;18.54;59.11;102619.28;5074466;28;20493;-74
2022/08/08 02:16:56;;;;;;;0.30;0.30;;;;;;;18.43;59.72;102628.50;5088095;27;1185426;-74
2022/08/08 02:19:33;;;;;;;0.08;0.08;;;;;;;18.41;59.72;102629.47;5120568;28;20516;-74
2022/08/08 02:22:38;;;;;;;0.05;0.05;;;;;;;18.38;59.85;102622.38;5096151;28;20058;-74
2022/08/08 02:30:56;;;;;;;0.00;0.00;;;;;;;18.34;60.27;102627.84;5069276;28;20394;-74
2022/08/08 02:45:32;;;;;;;0.00;0.00;;;;;;;18.19;60.49;102631.78;5068842;28;20402;-74
2022/08/08 02:48:32;;;;;;;0.00;0.00;;;;;;;18.18;60.39;102638.94;5041763;28;20450;-74
2022/08/08 02:51:34;;;;;;;0.10;0.10;;;;;;;18.18;60.56;102638.94;5043258;28;20037;-74
2022/08/08 02:54:27;;;;;;;0.05;0.05;;;;;;;18.14;60.05;102633.69;5036972;28;20033;-74
2022/08/08 02:57:30;;;;;;;0.10;0.10;;;;;;;18.13;60.48;102629.22;5030769;28;20439;-74
2022/08/08 03:03:38;;;;;;;0.40;0.40;;;;;;;18.09;60.18;102642.72;5067637;28;20422;-74
2022/08/08 03:06:31;;;;;;;0.88;0.88;;;;;;;18.04;60.22;102641.94;5046496;28;20117;-74
2022/08/08 03:15:00;;;;;;;0.10;0.10;;;;;;;17.97;60.72;102651.06;5070169;27;1878268;-75
2022/08/08 03:20:06;;;;;;;0.10;0.10;;;;;;;17.89;60.62;102647.63;5108780;27;20137;-75
2022/08/08 03:22:42;;;;;;;0.03;0.03;;;;;;;17.87;60.41;102647.66;5106925;28;20028;-75
2022/08/08 03:25:08;;;;;;;0.10;0.10;;;;;;;17.84;60.53;102644.16;5109053;28;20050;-75
2022/08/08 03:27:38;;;;;;;0.10;0.10;;;;;;;17.85;60.58;102651.28;5083632;28;20043;-74
2022/08/08 03:30:09;;;;;;;0.10;0.10;;;;;;;17.82;60.68;102657.59;5090505;28;20456;-74
2022/08/08 03:35:24;;;;;;;0.10;0.10;;;;;;;17.79;60.60;102653.19;5088393;28;20106;-74
2022/08/08 03:37:51;;;;;;;0.00;0.00;;;;;;;17.78;60.67;102659.47;5098955;28;20046;-74
2022/08/08 03:40:19;;;;;;;0.10;0.10;;;;;;;17.76;60.68;102658.59;5089384;28;20048;-74
2022/08/08 03:42:46;;;;;;;0.80;0.50;;;;;;;17.75;60.43;102662.19;5086905;28;20032;-74
2022/08/08 03:45:19;;;;;;;0.10;0.10;;;;;;;17.76;60.89;102658.59;5087333;28;20109;-74
2022/08/08 03:48:06;;;;;;;;;;;;;;;17.88;60.64;102662.84;5088461;28;20494;-74
2022/08/08 03:50:34;;;;;;;0.10;0.10;;;;;;;17.75;61.09;102661.31;5094191;28;20373;-74
2022/08/08 03:53:10;;;;;;;0.20;0.20;;;;;;;17.77;61.10;102663.06;5093534;28;20401;-74
2022/08/08 03:55:41;;;;;;;0.10;0.10;;;;;;;17.76;61.00;102663.97;5084879;28;20051;-74
2022/08/08 03:58:09;;;;;;;0.10;0.10;;;;;;;17.74;60.77;102660.41;5088700;28;20075;-74
2022/08/08 04:00:36;;;;;;;0.32;0.32;;;;;;;17.73;60.92;102666.72;5087661;28;20081;-74
2022/08/08 04:03:05;;;;;;;0.47;0.47;;;;;;;17.74;60.53;102664.91;5088385;28;20036;-74
2022/08/08 04:05:34;;;;;;;0.20;0.20;;;;;;;17.72;60.88;102656.91;5097066;28;20046;-74
2022/08/08 04:08:03;;;;;;;0.50;0.50;;;;;;;17.74;60.97;102664.91;5095863;28;20085;-74
2022/08/08 04:10:31;;;;;;;0.10;0.10;;;;;;;17.73;61.48;102674.78;5089792;28;20024;-74
2022/08/08 04:12:57;;;;;;;0.10;0.10;;;;;;;17.76;60.86;102676.50;5091248;28;20127;-74
2022/08/08 04:15:24;;;;;;;0.10;0.10;;;;;;;17.78;61.18;102678.22;5087130;28;20033;-74
2022/08/08 04:17:50;;;;;;;0.10;0.10;;;;;;;17.78;61.02;102672.88;5087293;28;20066;-74
2022/08/08 04:20:16;;;;;;;0.10;0.10;;;;;;;17.81;61.15;102679.97;5091766;28;20063;-74
2022/08/08 04:22:45;;;;;;;0.10;0.10;;;;;;;17.83;61.14;102678.16;5091357;28;20516;-74
2022/08/08 04:25:11;;;;;;;0.47;0.47;;;;;;;17.85;61.96;102678.09;5092330;28;20064;-75
2022/08/08 04:27:38;;;;;;;0.00;0.00;;;;;;;17.88;61.92;102683.38;5095250;28;20027;-74
2022/08/08 04:30:06;;;;;;;1.58;0.63;;;;;;;17.88;62.13;102686.97;5079973;28;20112;-74
2022/08/08 04:32:32;;;;;;;0.10;0.10;;;;;;;17.84;61.60;102682.56;5074219;28;20020;-74
2022/08/08 04:34:58;;;;;;;0.10;0.10;;;;;;;17.83;61.86;102682.59;5079564;28;20115;-74
2022/08/08 04:37:24;;;;;;;0.03;0.03;;;;;;;17.79;62.40;102680.00;5080231;28;20024;-74
2022/08/08 04:39:51;;;;;;;0.03;0.03;;;;;;;17.79;61.94;102681.78;5080277;28;20020;-74
2022/08/08 04:42:17;;;;;;;0.08;0.08;;;;;;;17.78;62.03;102690.72;5077133;28;20681;-74
2022/08/08 04:44:43;;;;;;;0.10;0.10;;;;;;;17.76;61.92;102687.22;5076186;28;20039;-74
2022/08/08 04:47:09;;;;;;;0.13;0.13;;;;;;;17.78;61.89;102691.63;5074995;28;20039;-74
2022/08/08 04:49:35;;;;;;;0.17;0.17;;;;;;;17.79;61.77;102685.38;5080814;28;20028;-74
2022/08/08 04:52:01;;;;;;;0.15;0.15;;;;;;;17.81;61.97;102693.38;5072470;28;20032;-74
2022/08/08 04:54:28;;;;;;;3.92;1.85;;;;;;;17.82;61.64;102684.41;5076973;28;20020;-74
2022/08/08 04:56:54;;;;;;;0.10;0.10;;;;;;;17.85;61.53;102691.50;5076611;28;20115;-74
2022/08/08 04:59:20;;;;;;;0.10;0.10;;;;;;;17.88;61.45;102694.13;5076871;28;20026;-74
2022/08/08 05:01:47;;;;;;;0.10;0.10;;;;;;;17.90;61.49;102686.94;5072366;28;20119;-74
2022/08/08 05:04:16;;;;;;;0.10;0.10;;;;;;;17.92;61.58;102696.69;5076100;28;20029;-74
2022/08/08 05:06:42;;;;;;;0.00;0.00;;;;;;;17.97;61.43;102709.16;5072117;28;20086;-74
2022/08/08 05:09:09;;;;;;;0.32;0.32;;;;;;;18.03;60.85;102703.66;5076571;28;20048;-74
2022/08/08 05:11:35;;;;;;;0.10;0.10;;;;;;;18.06;61.83;102709.84;5078829;28;20024;-74
2022/08/08 05:14:01;;;;;;;0.10;0.10;;;;;;;18.13;62.05;102709.72;5075605;28;20103;-74
2022/08/08 05:16:29;;;;;;;0.10;0.10;;;;;;;18.18;61.08;102710.50;5071221;28;20039;-74
2022/08/08 05:18:55;;;;;;;0.10;0.10;;;;;;;18.20;61.99;102711.34;5073876;28;20028;-74
2022/08/08 05:21:22;;;;;;;0.05;0.05;;;;;;;18.19;61.40;102709.56;5074845;28;20028;-75
2022/08/08 05:23:48;;;;;;;0.10;0.10;;;;;;;18.28;61.80;102709.38;5071151;28;20177;-74
2022/08/08 05:26:14;;;;;;;0.00;0.00;;;;;;;18.33;61.53;102707.47;5071795;28;20111;-74
2022/08/08 05:28:41;;;;;;;0.10;0.10;;;;;;;18.38;62.65;102710.94;5070752;28;20036;-74
2022/08/08 05:31:10;;;;;;;0.10;0.10;;;;;;;18.43;62.65;102709.03;5069473;28;20068;-74
2022/08/08 05:33:36;;;;;;;0.10;0.10;;;;;;;18.50;61.63;102703.50;5070638;28;20024;-74
2022/08/08 05:36:03;;;;;;;0.00;0.00;;;;;;;18.56;61.86;102711.41;5072100;28;20044;-74
2022/08/08 05:38:33;;;;;;;0.10;0.10;;;;;;;18.61;62.24;102706.81;5067290;28;20024;-74
2022/08/08 05:41:03;;;;;;;0.00;0.00;;;;;;;18.71;62.16;102711.03;5067108;28;20735;-74
2022/08/08 05:43:31;;;;;;;0.10;0.10;;;;;;;18.75;61.84;102712.75;5066120;28;20024;-74
2022/08/08 05:46:00;;;;;;;0.00;0.00;;;;;;;18.82;61.56;102715.28;5064227;23;20506;-83
2022/08/08 05:48:26;;;;;;;0.00;0.00;;;;;;;18.84;61.33;102711.63;5012433;28;20102;-83
2022/08/08 05:50:52;;;;;;;0.10;0.10;;;;;;;18.90;61.41;102713.25;5014493;28;20061;-82
2022/08/08 05:53:27;;;;;;;0.43;0.43;;;;;;;18.96;60.95;102715.81;5009185;28;20060;-84
2022/08/08 05:55:56;;;;;;;0.20;0.20;;;;;;;18.98;61.24;102722.06;5011384;28;20037;-82
2022/08/08 05:58:28;;;;;;;0.10;0.10;;;;;;;19.05;61.46;102718.28;5013788;28;20486;-82
2022/08/08 06:00:58;;;;;;;0.10;0.10;;;;;;;19.07;60.59;102715.56;5011260;28;20109;-83
2022/08/08 06:03:25;;;;;;;0.10;0.10;;;;;;;19.13;60.78;102714.50;5014895;28;20393;-86
2022/08/08 06:08:33;;;;;;;0.10;0.10;;;;;;;19.23;60.95;102716.03;5110484;27;1517534;-83
2022/08/08 06:11:00;;;;;;;0.20;0.20;;;;;;;19.25;60.62;102714.19;5131181;27;20210;-84
2022/08/08 06:13:28;;;;;;;0.55;0.55;;;;;;;19.35;60.82;102721.09;5131818;28;20072;-81
2022/08/08 06:15:54;;;;;;;0.30;0.30;;;;;;;19.40;60.94;102724.53;5122997;27;20024;-82
2022/08/08 06:18:23;;;;;;;0.38;0.38;;;;;;;19.46;60.94;102722.59;5110057;28;20054;-81
2022/08/08 06:20:53;;;;;;;0.10;0.10;;;;;;;19.51;60.87;102718.84;5113181;28;20019;-83
2022/08/08 06:23:19;;;;;;;0.10;0.10;;;;;;;19.56;60.51;102724.09;5114324;28;20020;-82
2022/08/08 06:25:56;;;;;;;0.10;0.10;;;;;;;19.63;60.31;102727.50;5115304;28;20023;-82
2022/08/08 06:28:29;;;;;;;0.10;0.10;;;;;;;19.71;60.29;102723.69;5114499;28;20035;-82
2022/08/08 06:30:59;;;;;;;0.10;0.10;;;;;;;19.75;59.78;102735.22;5102982;28;20485;-82
2022/08/08 06:36:13;;;;;;;0.10;0.10;;;;;;;19.85;60.01;102725.09;5075304;28;20379;-83
2022/08/08 06:38:44;;;;;;;0.00;0.00;;;;;;;19.87;60.21;102726.81;5055682;28;20545;-83
2022/08/08 06:41:15;;;;;;;0.40;0.40;;;;;;;19.95;59.88;102731.09;5044401;28;20030;-83
2022/08/08 06:43:46;;;;;;;0.38;0.30;;;;;;;20.02;59.91;102738.94;5054089;28;20048;-83
2022/08/08 06:46:13;;;;;;;0.13;0.13;;;;;;;20.08;59.26;102737.88;5051978;28;20064;-82
2022/08/08 06:48:39;;;;;;;0.10;0.10;;;;;;;20.14;59.34;102736.81;5055333;28;20037;-83
2022/08/08 06:51:05;;;;;;;0.10;0.10;;;;;;;20.15;59.20;102736.78;5054266;28;20033;-83
2022/08/08 06:53:32;;;;;;;0.30;0.30;;;;;;;20.23;59.58;102741.91;5051076;28;20053;-82
2022/08/08 06:56:02;;;;;;;0.08;0.08;;;;;;;20.28;58.92;102742.66;5050995;28;20128;-82
2022/08/08 06:58:32;;;;;;;0.10;0.10;;;;;;;20.35;59.05;102738.84;5053643;28;20049;-82
2022/08/08 07:00:59;;;;;;;0.55;0.55;;;;;;;20.41;58.61;102743.19;5052599;28;20442;-82
2022/08/08 07:03:43;;;;;;;0.10;0.10;;;;;;;20.46;58.48;102745.69;5055253;28;20040;-82
2022/08/08 07:06:11;;;;;;;0.10;0.10;;;;;;;20.54;58.14;102743.66;5055840;28;20120;-82
2022/08/08 07:08:42;;;;;;;0.10;0.10;;;;;;;20.59;58.37;102748.91;5054971;28;20032;-82
2022/08/08 07:11:10;;;;;;;0.10;0.10;;;;;;;20.63;57.94;102740.66;5053980;28;20029;-83
2022/08/08 07:13:42;;;;;;;0.10;0.10;;;;;;;20.73;58.10;102740.41;5052631;28;20052;-85
2022/08/08 07:16:21;;;;;;;0.10;0.10;;;;;;;20.84;57.81;102749.00;5047645;28;20042;-83
2022/08/08 07:21:35;;;;;;;0.10;0.10;;;;;;;20.93;57.37;102754.09;5069973;27;20769;-82
2022/08/08 07:24:15;;;;;;;0.00;0.00;;;;;;;21.08;57.12;102752.69;5071308;28;20040;-82
2022/08/08 07:26:45;;;;;;;0.47;0.47;;;;;;;21.12;56.74;102754.34;5081639;28;20032;-83
2022/08/08 07:29:11;;;;;;;0.10;0.10;;;;;;;21.19;56.52;102752.31;5096347;28;20530;-83
2022/08/08 07:31:39;;;;;;;0.10;0.10;;;;;;;21.20;56.32;102754.09;5087229;28;20513;-83
2022/08/08 07:34:05;;;;;;;0.00;0.00;;;;;;;21.34;56.57;102759.88;5077196;27;20025;-82
2022/08/08 07:36:32;;;;;;;0.10;0.10;;;;;;;21.41;55.88;102763.25;5074927;28;20037;-82
2022/08/08 07:39:00;;;;;;;0.05;0.05;;;;;;;21.49;55.78;102755.75;5075490;28;20029;-83
2022/08/08 07:41:28;;;;;;;0.10;0.10;;;;;;;21.55;55.89;102757.34;5076313;27;20135;-83
2022/08/08 07:43:57;;;;;;;0.10;0.10;;;;;;;21.60;55.83;102766.19;5075721;28;20033;-83
2022/08/08 07:46:24;;;;;;;0.10;0.10;;;;;;;21.70;55.49;102761.34;5074974;27;20047;-83
2022/08/08 07:48:50;;;;;;;0.10;0.10;;;;;;;21.79;55.20;102757.41;5089900;28;20105;-84
2022/08/08 07:51:17;;;;;;;6.07;1.98;;;;;;;21.84;54.77;102763.53;5096945;27;20028;-83
2022/08/08 07:56:58;;;;;;;0.10;0.10;;;;;;;22.13;53.53;102764.22;5110666;27;20415;-83
2022/08/08 07:59:29;;;;;;;0.10;0.10;;;;;;;22.17;53.96;102771.31;5098782;28;20064;-83
2022/08/08 08:01:58;;;;;;;0.10;0.10;;;;;;;22.24;53.63;102777.31;5096696;28;20509;-83
2022/08/08 08:04:31;;;;;;;0.10;0.10;;;;;;;22.34;53.37;102776.03;5096076;28;20036;-84
2022/08/08 08:06:59;;;;;;;0.30;0.30;;;;;;;22.48;53.80;102771.94;5094161;28;20453;-82
2022/08/08 08:09:33;;;;;;;0.10;0.10;;;;;;;22.58;53.12;102778.72;5095093;28;20029;-82
2022/08/08 08:11:59;;;;;;;0.52;0.52;;;;;;;22.64;52.94;102783.88;5094364;28;20432;-82
2022/08/08 08:14:56;;;;;;;0.20;0.20;;;;;;;22.82;52.68;102782.28;5089876;28;20063;-82
2022/08/08 08:17:24;;;;;;;0.10;0.10;;;;;;;22.92;53.04;102778.22;5087802;28;20499;-82
2022/08/08 08:19:57;;;;;;;0.10;0.10;;;;;;;23.07;51.83;102783.94;5096952;28;20028;-82
2022/08/08 08:22:23;;;;;;;0.10;0.10;;;;;;;23.13;52.40;102783.69;5095994;28;20028;-82
2022/08/08 08:24:49;;;;;;;0.10;0.10;;;;;;;23.19;51.72;102785.28;5098167;28;20040;-82
2022/08/08 08:27:15;;;;;;;0.10;0.10;;;;;;;23.19;51.75;102790.69;5097219;28;20021;-83
2022/08/08 08:29:42;;;;;;;0.70;0.70;;;;;;;23.12;51.61;102790.03;5097149;28;20061;-82
2022/08/08 08:32:08;;;;;;;0.10;0.10;;;;;;;22.98;51.13;102792.44;5094177;28;20330;-82
2022/08/08 08:34:36;;;;;;;0.10;0.10;;;;;;;23.03;52.32;102796.72;5094797;28;20054;-83
2022/08/08 08:37:03;;;;;;;0.10;0.10;;;;;;;23.04;52.11;102789.47;5096849;28;20039;-83
2022/08/08 08:39:32;;;;;;;0.40;0.40;;;;;;;23.04;51.68;102786.78;5096635;28;20024;-83
2022/08/08 08:41:59;;;;;;;0.00;0.00;;;;;;;23.08;51.27;102799.25;5094178;28;20682;-82
2022/08/08 08:44:26;;;;;;;0.10;0.10;;;;;;;23.25;51.29;102794.03;5092379;28;20541;-83
2022/08/08 08:46:54;;;;;;;0.15;0.15;;;;;;;23.49;51.55;102796.59;5090852;28;20023;-84
2022/08/08 08:49:21;;;;;;;0.10;0.10;;;;;;;23.61;50.64;102788.88;5095358;28;20032;-80
2022/08/08 08:51:49;;;;;;;0.10;0.10;;;;;;;23.64;49.71;102789.63;5095613;28;20028;-82
2022/08/08 08:54:20;;;;;;;0.10;0.10;;;;;;;23.73;49.98;102788.34;5097099;28;20032;-83
2022/08/08 08:56:47;;;;;;;0.10;0.10;;;;;;;23.80;48.80;102783.53;5095113;28;20100;-81
2022/08/08 08:59:16;;;;;;;0.10;0.10;;;;;;;23.93;49.03;102792.88;5093998;28;20378;-84
2022/08/08 09:01:45;;;;;;;0.10;0.10;;;;;;;24.10;50.09;102796.63;5091903;28;20098;-83
2022/08/08 09:04:24;;;;;;;0.10;0.10;;;;;;;24.27;49.36;102783.19;5090292;28;20082;-82
2022/08/08 09:07:12;;;;;;;0.10;0.10;;;;;;;24.36;47.58;102787.28;5085075;28;20032;-82
2022/08/08 09:09:39;;;;;;;3.55;1.65;;;;;;;24.45;49.07;102780.53;5078287;28;20503;-82
2022/08/08 09:12:08;;;;;;;0.65;0.43;;;;;;;24.55;48.17;102796.28;5078140;28;20029;-82
2022/08/08 09:14:34;;;;;;;0.10;0.10;;;;;;;24.67;48.44;102789.44;5078749;28;20024;-82
2022/08/08 09:17:01;;;;;;;0.10;0.10;;;;;;;24.76;48.36;102788.09;5077913;28;20120;-82
2022/08/08 09:19:30;;;;;;;0.10;0.10;;;;;;;25.01;48.37;102786.84;5076104;28;20039;-82
2022/08/08 09:21:56;;;;;;;0.10;0.10;;;;;;;25.17;47.91;102782.41;5076640;28;20039;-82
2022/08/08 09:24:23;;;;;;;0.20;0.20;;;;;;;25.38;47.42;102784.13;5075131;28;20024;-82
2022/08/08 09:27:04;;;;;;;0.10;0.10;;;;;;;25.52;46.83;102779.72;5075400;28;20036;-82
2022/08/08 09:29:33;;;;;;;0.10;0.10;;;;;;;25.51;46.59;102785.25;5074943;28;20553;-82
2022/08/08 09:32:05;;;;;;;0.38;0.38;;;;;;;25.53;46.28;102799.59;5074269;28;20021;-83
2022/08/08 09:34:34;;;;;;;0.10;0.10;;;;;;;25.48;44.49;102797.13;5071357;28;20027;-83
2022/08/08 09:37:07;;;;;;;0.10;0.10;;;;;;;25.47;44.14;102795.38;5071562;28;20035;-81
2022/08/08 09:39:47;;;;;;;0.10;0.10;;;;;;;25.40;45.73;102796.66;5083602;28;20029;-82
2022/08/08 09:42:20;;;;;;;0.10;0.10;;;;;;;25.31;45.37;102802.50;5066138;28;20032;-82
2022/08/08 09:47:27;;;;;;;0.10;0.10;;;;;;;25.32;45.96;102788.88;5070251;28;20379;-84
2022/08/08 09:49:56;;;;;;;0.00;0.00;;;;;;;25.40;46.03;102796.66;5067003;28;20112;-83
2022/08/08 09:52:28;;;;;;;0.75;0.73;;;;;;;25.40;45.41;102793.94;5070894;28;20116;-83
2022/08/08 09:54:54;;;;;;;;;;;;;;;25.55;44.69;102800.41;5071074;28;20107;-83
2022/08/08 09:57:31;;;;;;;0.10;0.10;;;;;;;25.47;44.88;102792.66;5065189;28;19947;-83
2022/08/08 09:59:59;;;;;;;0.03;0.03;;;;;;;25.40;45.09;102793.94;5069115;28;20402;-82
2022/08/08 10:02:35;;;;;;;0.20;0.20;;;;;;;25.48;45.30;102797.13;5069319;28;20497;-82
2022/08/08 10:13:24;;;;;;;0.20;0.20;;;;;;;25.66;44.84;102791.69;5130970;27;20393;-83
2022/08/08 10:15:52;;;;;;;0.10;0.10;;;;;;;25.59;45.07;102791.13;5128938;28;20366;-83
2022/08/08 10:18:28;;;;;;;0.10;0.10;;;;;;;25.51;43.31;102798.81;5131097;27;20110;-83
2022/08/08 10:26:27;;;;;;;0.50;0.32;;;;;;;25.60;44.91;102792.00;5060536;28;20428;-86
2022/08/08 10:29:10;;;;;;;0.57;0.35;;;;;;;25.75;44.27;102780.31;5044124;28;20112;-86
2022/08/08 10:34:28;;;;;;;0.10;0.10;;;;;;;25.81;44.79;102790.00;5050304;28;20037;-86
2022/08/08 10:36:55;;;;;;;0.10;0.10;;;;;;;25.87;44.30;102786.03;5053561;28;20370;-87
2022/08/08 10:39:25;;;;;;;0.10;0.10;;;;;;;25.91;44.35;102784.94;5054589;28;21311;-86
2022/08/08 10:42:02;;;;;;;0.57;0.57;;;;;;;26.04;43.97;102787.84;5048453;28;20138;-88
2022/08/08 10:44:35;;;;;;;0.20;0.20;;;;;;;26.06;43.52;102789.56;5050025;28;20040;-86
2022/08/08 10:47:18;;;;;;;0.10;0.10;;;;;;;26.18;44.13;102787.09;5050073;28;20036;-87
2022/08/08 10:49:55;;;;;;;0.10;0.10;;;;;;;26.29;44.47;102785.56;5044960;28;20025;-87
2022/08/08 10:55:16;;;;;;;0.20;0.20;;;;;;;26.67;43.10;102783.44;5070193;28;20398;-83
2022/08/08 11:03:12;;;;;;;0.10;0.10;;;;;;;27.22;41.53;102790.22;5152437;27;20386;-82
2022/08/08 11:05:46;;;;;;;0.10;0.10;;;;;;;27.26;41.56;102775.47;5141271;27;20035;-83
2022/08/08 11:08:21;;;;;;;0.10;0.10;;;;;;;27.40;40.87;102783.69;5147275;27;20035;-83
2022/08/08 11:10:47;;;;;;;0.10;0.10;;;;;;;27.48;40.38;102785.06;5152085;27;20038;-83
2022/08/08 11:13:20;;;;;;;0.10;0.10;;;;;;;27.54;40.54;102790.13;5153295;27;20059;-83
2022/08/08 11:15:48;;;;;;;0.10;0.10;;;;;;;27.50;40.91;102777.69;5153380;27;20667;-84
2022/08/08 11:18:15;;;;;;;0.10;0.10;;;;;;;27.49;40.90;102773.19;5153437;27;20033;-83
2022/08/08 11:20:42;;;;;;;0.20;0.20;;;;;;;27.50;41.19;102767.66;5151546;27;20144;-82
2022/08/08 11:23:08;;;;;;;0.38;0.38;;;;;;;27.50;40.40;102766.78;5155727;27;20023;-82
2022/08/08 11:25:34;;;;;;;1.20;1.10;;;;;;;27.39;40.76;102762.84;5155929;27;20083;-81
2022/08/08 11:28:03;;;;;;;0.10;0.10;;;;;;;27.30;40.30;102771.56;5151604;27;20050;-83
2022/08/08 11:30:31;;;;;;;0.10;0.10;;;;;;;27.20;40.74;102773.09;5152746;27;20023;-82
2022/08/08 11:33:02;;;;;;;0.10;0.10;;;;;;;27.29;40.58;102764.38;5152370;27;20027;-83
2022/08/08 11:35:28;;;;;;;0.10;0.10;;;;;;;27.31;40.76;102762.44;5150111;27;20058;-83
2022/08/08 11:37:55;;;;;;;0.10;0.10;;;;;;;27.35;40.81;102758.56;5151429;27;20552;-81
2022/08/08 11:40:21;;;;;;;3.03;0.43;;;;;;;27.37;39.75;102753.91;5154690;27;20031;-82
2022/08/08 11:42:50;;;;;;;0.22;0.22;;;;;;;27.51;40.50;102752.22;5153987;27;20060;-83
2022/08/08 11:45:19;;;;;;;0.10;0.10;;;;;;;27.68;39.85;102754.75;5155563;27;20032;-82
2022/08/08 11:47:46;;;;;;;0.20;0.20;;;;;;;27.86;37.60;102744.53;5070337;22;20503;-77
2022/08/08 11:50:18;;;;;;;0.10;0.10;;;;;;;28.02;39.22;102747.16;5047361;28;20036;-73
2022/08/08 11:52:45;;;;;;;;;;;;;;;28.31;39.06;102749.84;5050657;28;20021;-74
2022/08/08 11:55:27;;;;;;;0.10;0.10;;;;;;;28.24;37.73;102756.69;5046563;28;19908;-74
2022/08/08 11:58:04;;;;;;;0.32;0.32;;;;;;;28.11;38.70;102750.28;5047149;28;20090;-74
2022/08/08 12:00:30;;;;;;;0.10;0.10;;;;;;;27.89;39.60;102746.22;5047092;28;20052;-75
2022/08/08 12:02:58;;;;;;;0.10;0.10;;;;;;;27.76;39.83;102746.97;5045918;28;20044;-74
2022/08/08 12:08:09;;;;;;;0.10;0.10;;;;;;;27.86;39.50;102740.94;5115017;27;20390;-75
2022/08/08 12:10:46;;;;;;;0.10;0.10;;;;;;;28.16;40.00;102745.41;5110122;27;20027;-75
2022/08/08 12:13:20;;;;;;;0.00;0.00;;;;;;;28.31;38.27;102744.41;5109986;28;20032;-77
2022/08/08 12:15:49;;;;;;;0.10;0.10;;;;;;;28.37;36.95;102734.97;5111524;28;20049;-77
2022/08/08 12:18:23;;;;;;;0.10;0.10;;;;;;;28.38;37.65;102731.25;5111926;28;20028;-77
2022/08/08 12:20:51;;;;;;;0.30;0.30;;;;;;;28.23;38.07;102733.16;5109375;28;20020;-76
2022/08/08 12:23:37;;;;;;;0.25;0.25;;;;;;;28.20;38.81;102736.06;5112247;28;20044;-77
2022/08/08 12:26:14;;;;;;;0.10;0.10;;;;;;;28.09;37.83;102726.75;5111481;28;20028;-77
2022/08/08 12:28:40;;;;;;;0.25;0.25;;;;;;;27.83;36.96;102727.53;5112203;28;20031;-76
2022/08/08 12:31:08;;;;;;;0.85;0.85;;;;;;;27.66;37.66;102726.72;5105764;28;20032;-79
2022/08/08 12:33:38;;;;;;;0.10;0.10;;;;;;;27.51;38.89;102731.28;5111948;28;20037;-77
2022/08/08 12:36:13;;;;;;;0.13;0.13;;;;;;;27.37;39.11;102729.41;5111122;28;20016;-77
2022/08/08 12:38:49;;;;;;;0.10;0.10;;;;;;;27.19;39.30;102730.53;5131078;28;20130;-77
2022/08/08 12:41:15;;;;;;;0.20;0.20;;;;;;;27.09;39.88;102736.56;5131899;28;20044;-77
2022/08/08 12:43:41;;;;;;;0.10;0.10;;;;;;;26.94;40.44;102729.28;5133247;28;20027;-78
2022/08/08 12:46:16;;;;;;;0.10;0.10;;;;;;;26.99;40.42;102740.78;5122699;28;20024;-77
2022/08/08 12:48:53;;;;;;;0.10;0.10;;;;;;;26.97;40.79;102731.84;5112290;28;20516;-77
2022/08/08 12:51:20;;;;;;;0.10;0.10;;;;;;;26.94;40.05;102738.34;5111071;28;20028;-77
2022/08/08 12:54:02;;;;;;;0.10;0.10;;;;;;;27.02;40.02;102740.59;5130172;28;20023;-76
2022/08/08 12:56:37;;;;;;;0.10;0.10;;;;;;;26.95;40.18;102733.78;5130645;28;20455;-76
2022/08/08 12:59:14;;;;;;;0.10;0.10;;;;;;;26.99;41.32;102735.34;5131707;28;20484;-76
2022/08/08 13:01:41;;;;;;;0.10;0.10;;;;;;;26.94;41.41;102738.34;5117016;28;20393;-77
2022/08/08 13:12:16;;;;;;;0.10;0.10;;;;;;;28.13;38.65;102726.56;5111238;27;20407;-76
2022/08/08 13:14:46;;;;;;;0.10;0.10;;;;;;;28.50;38.34;102719.53;5113056;28;20039;-77
2022/08/08 13:17:14;;;;;;;0.10;0.10;;;;;;;28.80;36.91;102725.75;5111864;28;20031;-77
2022/08/08 13:19:42;;;;;;;0.17;0.17;;;;;;;29.21;37.42;102724.78;5110039;28;20031;-75
2022/08/08 13:22:08;;;;;;;0.10;0.10;;;;;;;29.51;35.84;102731.81;5106069;28;20081;-75
2022/08/08 13:24:37;;;;;;;0.17;0.17;;;;;;;29.68;36.20;102720.53;5108202;28;20062;-75
2022/08/08 13:29:54;;;;;;;0.20;0.20;;;;;;;30.14;35.81;102729.09;5067853;28;20402;-76
2022/08/08 13:32:23;;;;;;;0.10;0.10;;;;;;;30.05;35.53;102735.28;5068287;28;20049;-76
2022/08/08 13:34:51;;;;;;;0.10;0.10;;;;;;;29.99;35.43;102737.44;5068241;28;20021;-76
2022/08/08 13:37:17;;;;;;;0.17;0.17;;;;;;;29.84;36.13;102731.22;5058137;28;20025;-76
2022/08/08 13:39:49;;;;;;;0.10;0.10;;;;;;;29.68;35.68;102736.94;5067912;28;20047;-76
2022/08/08 13:42:16;;;;;;;0.10;0.10;;;;;;;29.35;36.32;102737.47;5067369;28;20037;-76
2022/08/08 13:44:43;;;;;;;0.10;0.10;;;;;;;29.04;35.87;102735.00;5064608;28;20025;-76
2022/08/08 13:47:15;;;;;;;0.10;0.10;;;;;;;28.99;37.48;102737.16;5061575;28;20036;-76
2022/08/08 13:49:41;;;;;;;0.20;0.20;;;;;;;28.82;37.46;102734.72;5067613;28;20523;-76
2022/08/08 13:52:09;;;;;;;0.10;0.10;;;;;;;28.49;37.13;102739.59;5057266;28;20033;-76
2022/08/08 13:54:39;;;;;;;0.10;0.10;;;;;;;28.39;37.35;102736.59;5067200;28;20035;-74
2022/08/08 13:57:09;;;;;;;0.20;0.20;;;;;;;28.23;37.92;102733.16;5067195;28;20025;-76
2022/08/08 14:07:31;;;;;;;0.10;0.10;;;;;;;27.43;39.39;102728.19;5147946;27;20391;-76
2022/08/08 14:09:59;;;;;;;0.47;0.47;;;;;;;27.22;39.74;102724.91;5149912;27;20030;-76
2022/08/08 14:12:28;;;;;;;0.10;0.10;;;;;;;27.13;39.63;102737.25;5148705;27;20080;-76
2022/08/08 14:14:55;;;;;;;0.10;0.10;;;;;;;27.52;39.65;102732.19;5149532;27;20027;-75
2022/08/08 14:17:21;;;;;;;0.20;0.20;;;;;;;27.91;39.58;102727.91;5149436;27;20057;-76
2022/08/08 14:19:47;;;;;;;0.10;0.10;;;;;;;28.06;37.57;102731.50;5149321;27;20023;-76
2022/08/08 14:22:24;;;;;;;0.20;0.20;;;;;;;28.17;37.11;102728.09;5145450;27;20030;-76
2022/08/08 14:25:08;;;;;;;0.10;0.10;;;;;;;28.35;37.96;102736.91;5141176;27;20031;-76
2022/08/08 14:27:38;;;;;;;0.10;0.10;;;;;;;28.24;35.73;102732.16;5149434;27;20027;-76